Campo Alegre De Goias, Brazil
Current Conditions -  °F | °C
As of 2:00 PM on Monday 20 Oct 2014 (Local Time) from SBUL Reporting Station
Scattered Clouds Scattered Clouds  
Wind Chill: 84°   Ceiling: Unl
Heat Index: 84°   Visibility: 6mi
Dew Point: 59°   Wind: 12mph
Humidity: 42%   Direction: 210°SSW
Pressure: 30.03"   Gusts: NA
Location:  17.65°S, 47.75°W
Report Text: SBUL 201700Z 21010KT 9999 FEW035 SCT100 29/15 Q1017
Loading
Personal Weather Stations






























Interactive Weather Map
Tropical Storm Tracking
New forecast layout! Learn more

10-Day Weather Forecast

Advertisements
Track Severe Weather on mobile